createdAt,value
2019-01-28T13:48:16.138Z,965.78
2019-01-28T13:49:16.363Z,965.82
2019-01-28T13:50:16.518Z,965.88
2019-01-28T13:51:16.759Z,965.91
2019-01-28T13:52:16.955Z,965.89
2019-01-28T13:53:17.173Z,965.94
2019-01-28T13:54:17.399Z,965.94
2019-01-28T13:55:17.599Z,965.98
2019-01-28T13:56:17.821Z,965.97
2019-01-28T13:57:18.042Z,965.99
2019-01-28T13:58:18.268Z,965.98
2019-01-28T13:59:18.487Z,966.05
2019-01-28T14:00:18.915Z,966.03
2019-01-28T14:01:18.930Z,966.07
2019-01-28T14:02:19.163Z,966.09
2019-01-28T14:03:19.382Z,966.13
2019-01-28T14:04:19.602Z,966.13
2019-01-28T14:05:19.823Z,966.18
2019-01-28T14:06:20.043Z,966.18
2019-01-28T14:07:20.271Z,966.21
2019-01-28T14:08:20.484Z,966.22
2019-01-28T14:09:20.705Z,966.25
2019-01-28T14:10:20.923Z,966.22
2019-01-28T14:11:21.145Z,966.26
2019-01-28T14:12:21.374Z,966.32
2019-01-28T14:13:21.599Z,966.32
2019-01-28T14:14:21.823Z,966.31
2019-01-28T14:15:22.048Z,966.35
2019-01-28T14:16:22.268Z,966.40
2019-01-28T14:17:22.505Z,966.39
2019-01-28T14:18:22.735Z,966.41
2019-01-28T14:19:22.957Z,966.43
2019-01-28T14:20:23.182Z,966.47
2019-01-28T14:21:23.403Z,966.45
2019-01-28T14:22:23.627Z,966.46
2019-01-28T14:23:24.136Z,966.49
2019-01-28T14:24:24.070Z,966.49
2019-01-28T14:25:24.291Z,966.51
2019-01-28T14:26:24.517Z,966.53
2019-01-28T14:27:24.737Z,966.58
2019-01-28T14:28:24.986Z,966.59
2019-01-28T14:29:25.227Z,966.65
2019-01-28T14:30:25.448Z,966.67
2019-01-28T14:31:25.673Z,966.63
2019-01-28T14:33:23.621Z,966.64
2019-01-28T14:34:23.243Z,966.68
2019-01-28T14:35:23.599Z,966.67
2019-01-28T14:36:23.643Z,966.69
2019-01-28T14:37:23.864Z,966.73
2019-01-28T14:38:24.087Z,966.70
2019-01-28T14:39:24.728Z,966.71
2019-01-28T14:40:24.527Z,966.70
2019-01-28T14:41:24.752Z,966.70
2019-01-28T14:42:24.974Z,966.70
2019-01-28T14:43:25.192Z,966.71
2019-01-28T14:44:25.406Z,966.72
2019-01-28T14:45:25.625Z,966.78
2019-01-28T14:46:25.845Z,966.80
2019-01-28T14:47:26.073Z,966.82
2019-01-28T14:48:26.293Z,966.87
2019-01-28T14:49:26.516Z,966.84
2019-01-28T14:50:26.739Z,966.85
2019-01-28T14:51:26.960Z,966.85
2019-01-28T14:52:27.197Z,966.91
2019-01-28T14:53:27.386Z,966.93
2019-01-28T14:54:27.596Z,966.95
2019-01-28T14:55:27.819Z,966.92
2019-01-28T14:56:28.043Z,966.96
2019-01-28T14:57:28.288Z,966.97
2019-01-28T14:58:28.490Z,967.00
2019-01-28T14:59:28.705Z,967.02
2019-01-28T15:00:28.923Z,966.98
2019-01-28T15:01:29.163Z,967.04
2019-01-28T15:02:29.363Z,967.04
2019-01-28T15:03:29.589Z,967.04
2019-01-28T15:04:29.814Z,967.07
2019-01-28T15:05:30.025Z,967.08
2019-01-28T15:06:30.247Z,967.10
2019-01-28T15:07:30.471Z,967.13
2019-01-28T15:08:30.687Z,967.14
2019-01-28T15:09:30.906Z,967.16
2019-01-28T15:10:31.131Z,967.21
2019-01-28T15:11:31.409Z,967.24
2019-01-28T15:12:31.567Z,967.34
2019-01-28T15:13:31.815Z,967.32
2019-01-28T15:14:32.045Z,967.34
2019-01-28T15:15:32.245Z,967.31
2019-01-28T15:16:32.466Z,967.35
2019-01-28T15:17:32.692Z,967.33
2019-01-28T15:18:32.907Z,967.35
2019-01-28T15:19:33.127Z,967.37
2019-01-28T15:20:33.350Z,967.40
2019-01-28T15:21:33.569Z,967.35
2019-01-28T15:22:33.793Z,967.41
2019-01-28T15:23:34.017Z,967.45
2019-01-28T15:24:34.240Z,967.45
2019-01-28T15:25:34.460Z,967.41
2019-01-28T15:26:34.686Z,967.44
2019-01-28T15:27:34.912Z,967.49
2019-01-28T15:28:35.116Z,967.50
2019-01-28T15:29:35.352Z,967.51
2019-01-28T15:30:35.616Z,967.55
2019-01-28T15:31:35.787Z,967.53
2019-01-28T15:32:36.052Z,967.52
2019-01-28T15:33:36.221Z,967.52
2019-01-28T15:34:36.523Z,967.57
2019-01-28T15:35:36.662Z,967.62
2019-01-28T15:36:36.892Z,967.64
2019-01-28T15:37:37.161Z,967.71
2019-01-28T15:38:37.322Z,967.76
2019-01-28T15:39:37.547Z,967.79
2019-01-28T15:40:37.762Z,967.76
2019-01-28T15:41:38.035Z,967.82
2019-01-28T15:42:38.206Z,967.77
2019-01-28T15:43:38.430Z,967.78
2019-01-28T15:44:38.649Z,967.83
2019-01-28T15:45:38.878Z,967.85
2019-01-28T15:46:39.090Z,967.84
2019-01-28T15:49:12.712Z,967.88
2019-01-28T15:50:13.260Z,967.87
2019-01-28T15:51:13.054Z,967.91
2019-01-28T15:52:13.117Z,967.95
2019-01-28T15:53:13.336Z,967.97
2019-01-28T15:54:13.561Z,968.01
2019-01-28T15:55:13.774Z,968.03
2019-01-28T15:56:13.995Z,967.99
2019-01-28T15:57:14.213Z,968.01
2019-01-28T15:58:14.445Z,968.02
2019-01-28T15:59:14.666Z,968.01
2019-01-28T16:00:14.890Z,968.04
2019-01-28T16:01:15.108Z,968.02
2019-01-28T16:02:15.341Z,968.04
2019-01-28T16:03:15.559Z,968.05
2019-01-28T16:04:15.782Z,968.04
2019-01-28T16:05:16.008Z,968.06
2019-01-28T16:06:16.227Z,968.11
2019-01-28T16:07:16.448Z,968.11
2019-01-28T16:08:16.669Z,968.15
2019-01-28T16:09:16.899Z,968.17
2019-01-28T16:10:17.117Z,968.22
2019-01-28T16:11:17.338Z,968.27
2019-01-28T16:12:17.560Z,968.30
2019-01-28T16:13:17.780Z,968.30
2019-01-28T16:14:18.001Z,968.30
2019-01-28T16:15:18.224Z,968.31
2019-01-28T16:16:18.475Z,968.34
2019-01-28T16:17:18.701Z,968.38
2019-01-28T16:18:18.921Z,968.43
2019-01-28T16:19:19.137Z,968.44
2019-01-28T16:20:19.358Z,968.44
2019-01-28T16:21:19.585Z,968.51
2019-01-28T16:22:19.814Z,968.49
2019-01-28T16:23:20.003Z,968.58
2019-01-28T16:24:20.224Z,968.56
2019-01-28T16:25:20.444Z,968.65
2019-01-28T16:26:20.666Z,968.68
2019-01-28T16:27:20.895Z,968.65
2019-01-28T16:28:21.115Z,968.74
2019-01-28T16:29:21.331Z,968.72
2019-01-28T16:30:26.062Z,968.77
2019-01-28T16:31:21.786Z,968.77
2019-01-28T16:32:22.009Z,968.79
2019-01-28T16:33:22.232Z,968.82
2019-01-28T16:34:22.454Z,968.82
2019-01-28T16:35:22.680Z,968.81
2019-01-28T16:36:22.918Z,968.88
2019-01-28T16:37:23.114Z,968.87
2019-01-28T16:38:23.341Z,968.90
2019-01-28T16:39:23.564Z,968.93
2019-01-28T16:40:23.825Z,968.95
2019-01-28T16:41:24.050Z,968.96
2019-01-28T16:42:24.277Z,969.00
2019-01-28T16:43:24.495Z,969.00
2019-01-28T16:44:24.714Z,969.00
2019-01-28T16:45:24.936Z,969.06
2019-01-28T16:46:25.159Z,969.06
2019-01-28T16:47:25.381Z,969.02
2019-01-28T16:48:25.661Z,969.05
2019-01-28T16:49:25.769Z,969.09
2019-01-28T16:50:27.192Z,969.11
2019-01-28T16:51:26.225Z,969.15
2019-01-28T16:52:26.441Z,969.18
2019-01-28T16:53:27.357Z,969.17
2019-01-28T16:54:26.886Z,969.24
2019-01-28T16:55:27.106Z,969.23
2019-01-28T16:56:27.326Z,969.22
2019-01-28T16:57:27.550Z,969.29
2019-01-28T16:58:27.770Z,969.30
2019-01-28T16:59:27.992Z,969.30
2019-01-28T17:00:28.216Z,969.35
2019-01-28T17:01:28.435Z,969.34
2019-01-28T17:02:28.659Z,969.39
2019-01-28T17:03:28.879Z,969.43
2019-01-28T17:04:29.100Z,969.48
2019-01-28T17:05:29.313Z,969.53
2019-01-28T17:06:29.536Z,969.51
2019-01-28T17:07:29.758Z,969.55
2019-01-28T17:08:29.973Z,969.57
2019-01-28T17:09:30.204Z,969.55
2019-01-28T17:10:30.429Z,969.57
2019-01-28T17:11:30.659Z,969.62
2019-01-28T17:12:30.873Z,969.62
2019-01-28T17:13:31.094Z,969.61
2019-01-28T17:14:31.314Z,969.64
2019-01-28T17:15:31.535Z,969.66
2019-01-28T17:16:31.763Z,969.67
2019-01-28T17:17:31.982Z,969.69
2019-01-28T17:18:32.200Z,969.70
2019-01-28T17:19:32.421Z,969.76
2019-01-28T17:20:35.654Z,969.77
2019-01-28T17:21:32.866Z,969.78
2019-01-28T17:22:33.083Z,969.79
2019-01-28T17:23:33.306Z,969.83
2019-01-28T17:24:33.524Z,969.85
2019-01-28T17:25:33.744Z,969.89
2019-01-28T17:26:33.967Z,969.86
2019-01-28T17:27:34.189Z,969.96
2019-01-28T17:28:34.407Z,969.93
2019-01-28T17:29:34.632Z,969.95
2019-01-28T17:30:34.852Z,969.99
2019-01-28T17:31:35.076Z,970.03
2019-01-28T17:32:35.296Z,970.03
2019-01-28T17:33:35.518Z,970.08
2019-01-28T17:34:35.741Z,970.11
2019-01-28T17:35:35.960Z,970.10
2019-01-28T17:36:36.181Z,970.10
2019-01-28T17:37:36.400Z,970.21
2019-01-28T17:38:36.632Z,970.25
2019-01-28T17:39:36.844Z,970.27
2019-01-28T17:40:37.068Z,970.28
2019-01-28T17:41:37.286Z,970.27
2019-01-28T17:42:37.528Z,970.33
2019-01-28T17:43:37.750Z,970.28
2019-01-28T17:44:37.972Z,970.34
2019-01-28T17:45:38.201Z,970.34
2019-01-28T17:46:38.422Z,970.38
2019-01-28T17:47:38.642Z,970.31
2019-01-28T17:48:38.862Z,970.39
2019-01-28T17:49:40.326Z,970.46
2019-01-28T17:50:43.869Z,970.51
2019-01-28T17:51:39.548Z,970.48
2019-01-28T17:52:39.756Z,970.53
2019-01-28T17:53:39.975Z,970.52
2019-01-28T17:54:40.202Z,970.57
2019-01-28T17:55:40.424Z,970.66
2019-01-28T17:56:40.650Z,970.65
2019-01-28T17:57:40.870Z,970.68
2019-01-28T17:58:41.216Z,970.73
2019-01-28T17:59:41.350Z,970.78
2019-01-28T18:00:41.581Z,970.78
2019-01-28T18:01:41.804Z,970.85
2019-01-28T18:02:42.020Z,970.83
2019-01-28T18:03:42.248Z,970.85
2019-01-28T18:04:42.469Z,970.90
2019-01-28T18:05:42.691Z,970.93
2019-01-28T18:06:42.914Z,970.95
2019-01-28T18:07:44.685Z,970.94
2019-01-28T18:08:43.357Z,970.96
2019-01-28T18:09:43.605Z,971.00
2019-01-28T18:10:43.788Z,971.02
2019-01-28T18:11:44.009Z,971.01
2019-01-28T18:12:44.234Z,971.03
2019-01-28T18:13:46.047Z,971.03
2019-01-28T18:14:44.801Z,971.04
2019-01-28T18:15:44.973Z,971.08
2019-01-28T18:16:45.087Z,971.04
2019-01-28T18:17:45.313Z,971.12
2019-01-28T18:18:45.536Z,971.07
2019-01-28T18:19:45.751Z,971.17
2019-01-28T18:20:51.578Z,971.14
2019-01-28T18:21:46.199Z,971.15
2019-01-28T18:22:46.539Z,971.20
2019-01-28T18:23:46.803Z,971.24
2019-01-28T18:24:47.017Z,971.30
2019-01-28T18:25:47.236Z,971.25
2019-01-28T18:26:47.455Z,971.27
2019-01-28T18:27:47.630Z,971.32
2019-01-28T18:28:47.776Z,971.40
2019-01-28T18:29:48.078Z,971.38
2019-01-28T18:30:48.270Z,971.28
2019-01-28T18:31:48.481Z,971.30
2019-01-28T18:32:48.634Z,971.39
2019-01-28T18:33:48.847Z,971.39
2019-01-28T18:34:49.031Z,971.46
2019-01-28T18:35:49.265Z,971.52
2019-01-28T18:36:49.559Z,971.48
2019-01-28T18:37:49.660Z,971.54
2019-01-28T18:38:49.976Z,971.63
2019-01-28T18:39:50.142Z,971.56
2019-01-28T18:40:50.366Z,971.59
2019-01-28T18:41:50.534Z,971.59
2019-01-28T18:42:50.669Z,971.60
2019-01-28T18:43:50.923Z,971.62
2019-01-28T18:44:51.137Z,971.64
2019-01-28T18:45:51.398Z,971.60
2019-01-28T18:46:51.642Z,971.71
2019-01-28T18:47:51.924Z,971.69
2019-01-28T18:48:52.058Z,971.71
2019-01-28T18:49:52.367Z,971.76
2019-01-28T18:50:59.431Z,971.75
2019-01-28T18:51:52.717Z,971.80
2019-01-28T18:52:52.814Z,971.86
2019-01-28T18:53:53.118Z,971.92
2019-01-28T18:54:53.326Z,971.90
2019-01-28T18:55:53.602Z,971.90
2019-01-28T18:56:53.716Z,971.95
2019-01-28T18:57:54.075Z,971.97
2019-01-28T18:58:54.319Z,971.99
2019-01-28T18:59:54.514Z,972.03
2019-01-28T19:00:54.666Z,972.04
2019-01-28T19:01:54.958Z,972.11
2019-01-28T19:02:55.063Z,972.03
2019-01-28T19:03:55.286Z,972.03
2019-01-28T19:04:55.639Z,972.08
2019-01-28T19:05:55.805Z,972.13
2019-01-28T19:06:55.946Z,972.17
2019-01-28T19:07:56.274Z,972.19
2019-01-28T19:08:56.441Z,972.19
2019-01-28T19:09:56.688Z,972.24
2019-01-28T19:10:56.869Z,972.27
2019-01-28T19:11:57.145Z,972.29
2019-01-28T19:12:57.271Z,972.38
2019-01-28T19:13:57.519Z,972.35
2019-01-28T19:14:57.757Z,972.34
2019-01-28T19:15:57.928Z,972.38
2019-01-28T19:16:58.089Z,972.41
2019-01-28T19:17:58.393Z,972.42
2019-01-28T19:18:58.599Z,972.48
2019-01-28T19:19:58.704Z,972.48
2019-01-28T19:20:59.021Z,972.48
2019-01-28T19:21:59.153Z,972.50
2019-01-28T19:22:59.397Z,972.59
2019-01-28T19:23:59.615Z,972.55
2019-01-28T19:24:59.949Z,972.60
2019-01-28T19:26:00.194Z,972.60
2019-01-28T19:27:00.325Z,972.61
2019-01-28T19:28:00.650Z,972.67
2019-01-28T19:29:00.922Z,972.66
2019-01-28T19:30:01.032Z,972.70
2019-01-28T19:31:01.235Z,972.75
2019-01-28T19:32:01.347Z,972.77
2019-01-28T19:33:01.690Z,972.78
2019-01-28T19:34:01.791Z,972.74
2019-01-28T19:35:02.089Z,972.82
2019-01-28T19:36:02.209Z,972.83
2019-01-28T19:37:02.539Z,972.84
2019-01-28T19:38:02.605Z,972.89
2019-01-28T19:39:02.929Z,972.89
2019-01-28T19:40:03.103Z,972.93
2019-01-28T19:41:03.311Z,972.96
2019-01-28T19:42:03.558Z,972.98
2019-01-28T19:43:03.752Z,972.99
2019-01-28T19:44:03.935Z,972.94
2019-01-28T19:45:04.142Z,973.00
2019-01-28T19:46:04.278Z,973.11
2019-01-28T19:47:04.690Z,973.06
2019-01-28T19:48:04.781Z,973.14
2019-01-28T19:49:05.040Z,973.10
2019-01-28T19:50:05.376Z,973.11
2019-01-28T19:51:05.552Z,973.14
2019-01-28T19:52:05.773Z,973.13
2019-01-28T19:53:05.994Z,973.18
2019-01-28T19:54:06.224Z,973.18
2019-01-28T19:55:06.433Z,973.25
2019-01-28T19:56:06.617Z,973.23
2019-01-28T19:57:06.844Z,973.29
2019-01-28T19:58:07.005Z,973.26
2019-01-28T19:59:07.234Z,973.33
2019-01-28T20:00:07.417Z,973.37
2019-01-28T20:01:07.658Z,973.37
2019-01-28T20:02:07.868Z,973.37
2019-01-28T20:03:08.144Z,973.40
2019-01-28T20:04:08.334Z,973.42
2019-01-28T20:05:08.565Z,973.40
2019-01-28T20:06:08.770Z,973.37
2019-01-28T20:07:08.927Z,973.44
2019-01-28T20:08:09.193Z,973.46
2019-01-28T20:09:09.431Z,973.45
2019-01-28T20:10:09.697Z,973.45
2019-01-28T20:11:09.943Z,973.43
2019-01-28T20:12:10.103Z,973.48
2019-01-28T20:13:10.330Z,973.42
2019-01-28T20:14:10.545Z,973.51
2019-01-28T20:15:10.789Z,973.53
2019-01-28T20:16:10.987Z,973.60
2019-01-28T20:17:11.227Z,973.57
2019-01-28T20:18:11.446Z,973.55
2019-01-28T20:19:11.656Z,973.53
2019-01-28T20:20:11.913Z,973.63
2019-01-28T20:21:12.180Z,973.61
2019-01-28T20:22:12.357Z,973.65
2019-01-28T20:23:12.611Z,973.63
2019-01-28T20:24:12.796Z,973.68
2019-01-28T20:25:13.055Z,973.72
2019-01-28T20:26:13.271Z,973.71
2019-01-28T20:27:13.434Z,973.76
2019-01-28T20:28:13.618Z,973.76
2019-01-28T20:29:13.874Z,973.80
2019-01-28T20:30:14.116Z,973.81
2019-01-28T20:31:14.300Z,973.90
2019-01-28T20:32:14.515Z,973.90
2019-01-28T20:33:14.757Z,973.90
2019-01-28T20:34:14.905Z,973.89
2019-01-28T20:35:15.120Z,973.99
2019-01-28T20:36:15.344Z,973.94
2019-01-28T20:37:15.544Z,974.00
2019-01-28T20:38:16.106Z,973.91
2019-01-28T20:39:15.960Z,973.97
2019-01-28T20:40:16.194Z,973.98
2019-01-28T20:41:16.412Z,974.03
2019-01-28T20:42:16.621Z,974.10
2019-01-28T20:43:23.917Z,974.09
2019-01-28T20:44:17.056Z,974.12
2019-01-28T20:45:17.325Z,974.16
2019-01-28T20:46:17.561Z,974.17
2019-01-28T20:47:17.823Z,974.19
2019-01-28T20:48:18.023Z,974.20
2019-01-28T20:49:18.207Z,974.18
2019-01-28T20:50:18.416Z,974.21
2019-01-28T20:51:18.638Z,974.23
2019-01-28T20:52:18.857Z,974.28
2019-01-28T20:53:19.112Z,974.29
2019-01-28T20:54:19.346Z,974.30
2019-01-28T20:55:19.513Z,974.48
2019-01-28T20:56:19.765Z,974.35
2019-01-28T20:57:20.016Z,974.35
2019-01-28T20:58:20.251Z,974.41
2019-01-28T20:59:20.460Z,974.47
2019-01-28T21:00:20.670Z,974.44
2019-01-28T21:01:20.864Z,974.50
2019-01-28T21:02:21.100Z,974.50
2019-01-28T21:03:21.278Z,974.51
2019-01-28T21:04:21.513Z,974.60
2019-01-28T21:05:21.669Z,974.61
2019-01-28T21:06:21.898Z,974.70
2019-01-28T21:07:21.969Z,974.69
2019-01-28T21:08:22.321Z,974.69
2019-01-28T21:09:22.451Z,974.71
2019-01-28T21:10:22.659Z,974.74
2019-01-28T21:11:22.857Z,974.65
2019-01-28T21:12:23.085Z,974.74
2019-01-28T21:13:23.351Z,974.77
2019-01-28T21:14:23.548Z,974.79
2019-01-28T21:15:23.772Z,974.77
2019-01-28T21:16:24.019Z,974.83
2019-01-28T21:17:24.241Z,974.87
2019-01-28T21:18:24.457Z,974.84
2019-01-28T21:19:24.738Z,974.87
2019-01-28T21:20:25.054Z,974.91
2019-01-28T21:21:25.154Z,974.91
2019-01-28T21:22:25.451Z,974.91
2019-01-28T21:23:25.651Z,974.99
2019-01-28T21:24:25.873Z,974.95
2019-01-28T21:25:26.093Z,975.01
2019-01-28T21:26:26.326Z,974.97
2019-01-28T21:27:26.616Z,975.06
2019-01-28T21:28:26.715Z,975.08
2019-01-28T21:29:26.931Z,975.09
2019-01-28T21:30:27.159Z,975.10
2019-01-28T21:31:27.391Z,975.10
2019-01-28T21:32:27.602Z,975.17
2019-01-28T21:33:27.850Z,975.16
2019-01-28T21:34:28.064Z,975.14
2019-01-28T21:35:28.280Z,975.21
2019-01-28T21:36:28.515Z,975.22
2019-01-28T21:37:28.784Z,975.23
2019-01-28T21:38:28.958Z,975.26
2019-01-28T21:39:29.175Z,975.27
2019-01-28T21:40:29.331Z,975.27
2019-01-28T21:41:29.550Z,975.33
2019-01-28T21:42:29.677Z,975.34
2019-01-28T21:43:29.885Z,975.32
2019-01-28T21:44:30.118Z,975.42
2019-01-28T21:45:30.402Z,975.41
2019-01-28T21:46:30.574Z,975.34
2019-01-28T21:47:30.796Z,975.40
2019-01-28T21:48:31.035Z,975.43
2019-01-28T21:49:31.229Z,975.45
2019-01-28T21:50:31.461Z,975.45
2019-01-28T21:51:31.670Z,975.50
2019-01-28T21:52:31.882Z,975.42
2019-01-28T21:53:32.094Z,975.48
2019-01-28T21:54:32.318Z,975.49
2019-01-28T21:55:32.527Z,975.45
2019-01-28T21:56:33.048Z,975.54
2019-01-28T21:57:32.974Z,975.53
2019-01-28T21:58:33.197Z,975.59
2019-01-28T21:59:33.409Z,975.58
2019-01-28T22:00:33.632Z,975.59
2019-01-28T22:01:33.849Z,975.64
2019-01-28T22:02:34.110Z,975.61
2019-01-28T22:03:34.336Z,975.65
2019-01-28T22:04:34.551Z,975.70
2019-01-28T22:05:34.771Z,975.73
2019-01-28T22:06:34.990Z,975.65
2019-01-28T22:07:35.215Z,975.68
2019-01-28T22:08:35.435Z,975.71
2019-01-28T22:09:35.656Z,975.74
2019-01-28T22:10:35.877Z,975.76
2019-01-28T22:11:36.100Z,975.77
2019-01-28T22:12:36.334Z,975.79
2019-01-28T22:13:36.542Z,975.81
2019-01-28T22:14:36.763Z,975.84
2019-01-28T22:15:36.989Z,975.84
2019-01-28T22:16:37.203Z,975.83
2019-01-28T22:17:37.425Z,975.87
2019-01-28T22:18:37.644Z,975.90
2019-01-28T22:19:37.896Z,975.91
2019-01-28T22:20:38.117Z,975.97
2019-01-28T22:21:38.338Z,975.95
2019-01-28T22:22:38.559Z,975.99
2019-01-28T22:23:38.774Z,976.03
2019-01-28T22:24:38.994Z,976.02
2019-01-28T22:25:39.214Z,976.07
2019-01-28T22:26:39.437Z,976.08
2019-01-28T22:27:39.651Z,976.09
2019-01-28T22:28:39.876Z,976.12
2019-01-28T22:29:40.099Z,976.15
2019-01-28T22:30:40.320Z,976.16
2019-01-28T22:31:40.537Z,976.08
2019-01-28T22:32:40.751Z,976.16
2019-01-28T22:33:40.969Z,976.20
2019-01-28T22:34:47.706Z,976.26
2019-01-28T22:35:41.406Z,976.16
2019-01-28T22:36:41.623Z,976.13
2019-01-28T22:37:41.847Z,976.23
2019-01-28T22:38:42.732Z,976.29
2019-01-28T22:39:42.286Z,976.26
2019-01-28T22:40:42.510Z,976.36
2019-01-28T22:41:42.737Z,976.35
2019-01-28T22:42:42.955Z,976.40
2019-01-28T22:43:43.178Z,976.38
2019-01-28T22:44:43.391Z,976.41
2019-01-28T22:45:43.611Z,976.45
2019-01-28T22:46:43.826Z,976.51
2019-01-28T22:47:44.043Z,976.50
2019-01-28T22:48:44.264Z,976.54
2019-01-28T22:49:44.483Z,976.56
2019-01-28T22:50:44.701Z,976.55
2019-01-28T22:51:44.932Z,976.56
2019-01-28T22:52:45.146Z,976.56
2019-01-28T22:53:45.395Z,976.61
2019-01-28T22:54:45.588Z,976.64
2019-01-28T22:55:45.818Z,976.66
2019-01-28T22:56:46.036Z,976.60
2019-01-28T22:57:46.245Z,976.65
2019-01-28T22:58:46.471Z,976.60
2019-01-28T22:59:46.688Z,976.63
2019-01-28T23:00:46.919Z,976.63
2019-01-28T23:01:47.120Z,976.65
2019-01-28T23:02:47.340Z,976.67
2019-01-28T23:03:47.559Z,976.66
2019-01-28T23:04:47.782Z,976.71
2019-01-28T23:05:48.001Z,976.68
2019-01-28T23:06:48.221Z,976.68
2019-01-28T23:07:48.437Z,976.69
2019-01-28T23:08:48.661Z,976.73
2019-01-28T23:09:48.879Z,976.73
2019-01-28T23:10:49.109Z,976.70
2019-01-28T23:11:49.321Z,976.72
2019-01-28T23:12:49.530Z,976.74
2019-01-28T23:13:49.754Z,976.73
2019-01-28T23:14:49.970Z,976.80
2019-01-28T23:15:50.184Z,976.84
2019-01-28T23:16:50.397Z,976.81
2019-01-28T23:17:50.617Z,976.82
2019-01-28T23:18:50.835Z,976.86
2019-01-28T23:19:51.057Z,976.79
2019-01-28T23:20:51.279Z,976.84
2019-01-28T23:21:51.502Z,976.89
2019-01-28T23:22:51.710Z,976.85
2019-01-28T23:23:51.933Z,976.88
2019-01-28T23:24:52.178Z,976.93
2019-01-28T23:25:52.377Z,976.89
2019-01-28T23:26:52.600Z,976.99
2019-01-28T23:27:52.821Z,976.96
2019-01-28T23:28:53.024Z,977.00
2019-01-28T23:29:53.229Z,976.90
2019-01-28T23:30:53.448Z,976.98
2019-01-28T23:31:53.680Z,976.98
2019-01-28T23:32:53.887Z,976.99
2019-01-28T23:33:54.110Z,976.99
2019-01-28T23:34:54.334Z,976.99
2019-01-28T23:35:54.561Z,977.03
2019-01-28T23:36:54.784Z,977.03
2019-01-28T23:37:55.004Z,977.06
2019-01-28T23:38:55.223Z,977.07
2019-01-28T23:39:55.428Z,977.08
2019-01-28T23:40:55.659Z,977.04
2019-01-28T23:41:55.879Z,977.06
2019-01-28T23:42:56.065Z,977.04
2019-01-28T23:43:56.286Z,977.07
2019-01-28T23:44:56.498Z,977.06
2019-01-28T23:45:56.726Z,977.08
2019-01-28T23:46:56.928Z,977.11
2019-01-28T23:47:57.147Z,977.15
2019-01-28T23:48:57.365Z,977.12
2019-01-28T23:49:57.583Z,977.11
2019-01-28T23:50:57.801Z,977.14
2019-01-28T23:51:58.033Z,977.16
2019-01-28T23:52:58.252Z,977.15
2019-01-28T23:53:58.455Z,977.18
2019-01-28T23:54:58.686Z,977.19
2019-01-28T23:55:58.907Z,977.19
2019-01-28T23:56:59.127Z,977.20
2019-01-28T23:57:59.349Z,977.22
2019-01-28T23:58:59.567Z,977.20
2019-01-28T23:59:59.790Z,977.21
